Time;durP1;ratioP1;P1;durP2;ratioP2;P2;SDS_P1;SDS_P2;PMS_P1;PMS_P2;Temp;Humidity;BMP_temperature;BMP_pressure;BME280_temperature;BME280_humidity;BME280_pressure;Samples;Min_cycle;Max_cycle;Signal;HPM_P1;HPM_P2
2022/01/23 00:00:31;;;;;;;26.90;16.58;;;5.70;99.90;;;4.96;100.00;103132.28;4169537;28;20018;-68
2022/01/23 00:02:34;;;;;;;26.75;14.90;;;5.70;99.90;;;4.95;100.00;103141.91;4169603;28;20030;-68
2022/01/23 00:04:36;;;;;;;25.00;15.55;;;5.70;99.90;;;4.90;100.00;103133.38;4169557;28;20028;-68
2022/01/23 00:06:37;;;;;;;25.83;14.93;;;5.70;99.90;;;4.84;100.00;103130.16;4184595;28;20032;-68
2022/01/23 00:08:38;;;;;;;25.83;15.10;;;5.70;99.90;;;4.84;100.00;103124.91;4151870;28;20042;-68
2022/01/23 00:10:40;;;;;;;25.75;15.48;;;5.70;99.90;;;4.78;100.00;103127.81;4168251;28;20033;-68
2022/01/23 00:12:49;;;;;;;24.45;14.98;;;5.70;99.90;;;4.96;100.00;103116.59;4168249;28;20512;-68
2022/01/23 00:17:34;;;;;;;22.17;14.95;;;5.70;99.90;;;4.96;100.00;103120.06;4145710;28;20065;-68
2022/01/23 00:19:35;;;;;;;25.13;16.88;;;5.70;99.90;;;4.95;100.00;103112.28;4118505;28;20545;-68
2022/01/23 00:21:38;;;;;;;23.30;15.80;;;5.70;99.90;;;4.98;100.00;103112.16;4118595;28;20034;-68
2022/01/23 00:30:33;;;;;;;26.20;16.13;;;5.70;99.90;;;4.88;100.00;103114.28;4169196;28;20056;-68
2022/01/23 00:32:34;;;;;;;24.17;14.70;;;5.70;99.90;;;4.90;100.00;103108.97;4184373;28;20040;-68
2022/01/23 00:34:36;;;;;;;23.45;14.40;;;5.70;99.90;;;4.99;100.00;103121.69;4167974;28;20032;-68
2022/01/23 00:36:37;;;;;;;23.23;15.93;;;5.70;99.90;;;4.88;100.00;103108.19;4168895;28;20097;-68
2022/01/23 00:38:38;;;;;;;26.48;13.93;;;5.70;99.90;;;4.75;100.00;103101.78;4168867;28;20065;-68
2022/01/23 00:40:42;;;;;;;24.25;15.65;;;5.70;99.90;;;4.88;100.00;103097.75;4184170;28;20029;-68
2022/01/23 00:42:43;;;;;;;26.45;15.25;;;5.70;99.90;;;4.87;100.00;103096.88;4184011;28;20104;-68
2022/01/23 00:44:47;;;;;;;26.67;15.15;;;5.60;99.90;;;4.93;100.00;103101.00;4167252;28;20057;-68
2022/01/23 00:46:51;;;;;;;24.58;14.95;;;5.70;99.90;;;4.90;100.00;103094.16;4150996;28;20030;-68
2022/01/23 00:50:58;;;;;;;24.58;14.60;;;5.70;99.90;;;4.92;100.00;103105.41;4151915;28;20036;-68
2022/01/23 00:53:00;;;;;;;26.05;15.38;;;5.70;99.90;;;4.79;100.00;103087.66;4168770;28;20037;-68
2022/01/23 00:55:04;;;;;;;23.08;14.77;;;5.70;99.90;;;4.95;100.00;103094.84;4168689;28;20151;-68
2022/01/23 00:57:05;;;;;;;23.17;14.00;;;5.60;99.90;;;4.88;100.00;103095.13;4183695;28;20040;-68
2022/01/23 00:59:06;;;;;;;26.20;15.38;;;5.70;99.90;;;4.80;100.00;103095.44;4183569;28;20055;-68
2022/01/23 01:01:07;;;;;;;23.15;14.98;;;5.70;99.90;;;4.64;100.00;103089.13;4151071;28;20030;-68
2022/01/23 01:03:09;;;;;;;22.60;14.00;;;5.60;99.90;;;4.67;100.00;103095.97;4167349;28;20017;-68
2022/01/23 01:05:10;;;;;;;23.77;14.82;;;5.50;99.90;;;4.72;100.00;103097.50;4150998;28;20044;-68
2022/01/23 01:07:11;;;;;;;25.02;15.27;;;5.50;99.90;;;4.80;100.00;103094.59;4168477;28;20024;-68
2022/01/23 01:09:14;;;;;;;21.75;15.50;;;5.50;99.90;;;4.84;100.00;103091.78;4168552;28;20056;-68
2022/01/23 01:13:28;;;;;;;22.73;14.57;;;5.50;99.90;;;4.81;100.00;103075.34;4168286;28;20568;-68
2022/01/23 01:15:38;;;;;;;22.65;14.93;;;5.60;99.90;;;4.79;100.00;103087.66;4166319;28;20161;-68
2022/01/23 01:30:12;;;;;;;26.67;14.95;;;5.60;99.90;;;4.71;100.00;103077.53;4135781;28;20145;-68
2022/01/23 01:31:50;;;;;;;22.10;14.20;;;5.50;99.90;;;4.61;100.00;103067.47;4168314;28;20055;-68
2022/01/23 01:38:21;;;;;;;27.30;16.45;;;5.40;99.90;;;4.57;100.00;103071.97;4182387;28;20048;-68
2022/01/23 01:40:24;;;;;;;24.83;15.10;;;5.40;99.90;;;4.56;100.00;103069.44;4168084;28;20025;-68
2022/01/23 01:42:25;;;;;;;23.98;16.02;;;5.40;99.90;;;4.52;100.00;103071.31;4183274;28;20090;-68
2022/01/23 01:44:26;;;;;;;22.85;15.70;;;5.40;99.90;;;4.49;100.00;103066.19;4167704;28;20029;-68
2022/01/23 01:46:28;;;;;;;24.42;16.63;;;5.40;99.90;;;4.67;100.00;103072.47;4150056;28;20497;-68
2022/01/23 01:48:29;;;;;;;25.05;16.83;;;5.40;99.90;;;4.69;100.00;103062.81;4183305;28;20483;-68
2022/01/23 01:50:32;;;;;;;25.45;15.85;;;5.40;99.90;;;4.67;100.00;103069.84;4183053;28;20044;-68
2022/01/23 01:52:34;;;;;;;27.95;16.77;;;5.40;99.90;;;4.61;100.00;103073.56;4183107;28;20025;-68
2022/01/23 01:54:35;;;;;;;27.58;16.08;;;5.40;99.90;;;4.79;100.00;103072.81;4167735;28;20033;-68
2022/01/23 01:56:48;;;;;;;26.67;15.70;;;5.40;99.90;;;4.58;100.00;103059.75;4167631;28;20025;-68
2022/01/23 02:00:57;;;;;;;27.63;17.10;;;5.40;99.90;;;4.51;100.00;103076.59;4183169;28;20033;-68
2022/01/23 02:09:46;;;;;;;28.35;16.65;;;5.40;99.90;;;4.40;100.00;103056.97;4180537;28;20566;-68
2022/01/23 02:23:29;;;;;;;26.20;16.67;;;5.30;99.90;;;4.36;100.00;103055.38;4150901;28;20408;-68
2022/01/23 02:51:28;;;;;;;23.75;16.27;;;5.20;99.90;;;4.33;100.00;103026.75;4180125;28;20031;-68
2022/01/23 02:53:40;;;;;;;23.73;16.00;;;5.30;99.90;;;4.51;100.00;103029.56;4167248;28;20032;-68
2022/01/23 02:55:47;;;;;;;27.80;17.05;;;5.20;99.90;;;4.41;100.00;103023.84;4180975;28;20720;-68
2022/01/23 02:57:58;;;;;;;26.02;17.15;;;5.20;99.90;;;4.38;100.00;103019.59;4183535;28;20029;-68
2022/01/23 02:59:59;;;;;;;27.30;17.10;;;5.20;99.90;;;4.24;100.00;103014.03;4184833;28;20878;-68
2022/01/23 03:04:08;;;;;;;26.50;17.77;;;5.20;99.90;;;4.21;100.00;103013.34;4170787;28;20030;-68
2022/01/23 03:10:26;;;;;;;30.63;17.35;;;5.10;99.90;;;4.14;100.00;103002.28;4170657;28;20033;-68
2022/01/23 03:14:57;;;;;;;28.90;17.50;;;5.10;99.90;;;4.16;100.00;103015.25;4170412;28;20140;-68
2022/01/23 03:30:24;;;;;;;26.80;19.02;;;5.00;99.90;;;4.29;100.00;102991.22;4170196;28;20021;-68
2022/01/23 03:32:39;;;;;;;28.15;17.48;;;5.10;99.90;;;4.29;100.00;102988.59;4170154;28;20033;-68
2022/01/23 03:34:40;;;;;;;27.90;17.27;;;5.10;99.90;;;4.37;100.00;102990.91;4170300;28;20097;-68
2022/01/23 03:36:41;;;;;;;28.15;16.10;;;5.10;99.90;;;4.24;100.00;102990.53;4185221;28;20036;-68
2022/01/23 03:38:43;;;;;;;27.77;17.35;;;5.10;99.90;;;4.36;100.00;102989.22;4152366;28;20212;-68
2022/01/23 03:40:44;;;;;;;25.48;17.17;;;5.10;99.90;;;4.49;100.00;102993.03;4185262;28;20400;-68
2022/01/23 03:42:48;;;;;;;27.98;16.58;;;5.10;99.90;;;4.47;100.00;102989.63;4170023;28;20026;-68
2022/01/23 03:45:46;;;;;;;27.20;17.08;;;5.20;99.90;;;4.33;100.00;102986.72;4157821;28;20026;-68
2022/01/23 03:47:35;;;;;;;26.10;16.27;;;5.20;99.90;;;4.40;100.00;102996.84;4169578;28;20033;-68
2022/01/23 03:49:36;;;;;;;28.55;17.02;;;5.20;99.90;;;4.33;100.00;102991.97;4169964;28;20404;-68
2022/01/23 03:51:38;;;;;;;26.00;18.10;;;5.20;99.90;;;4.43;100.00;102986.28;4168640;28;20030;-68
2022/01/23 03:53:40;;;;;;;27.40;16.83;;;5.20;99.90;;;4.45;100.00;102992.28;4152436;28;20025;-68
2022/01/23 03:55:41;;;;;;;26.42;16.75;;;5.20;99.90;;;4.65;100.00;102995.88;4168297;28;20529;-68
2022/01/23 03:57:42;;;;;;;25.23;17.45;;;5.30;99.90;;;4.60;100.00;102987.38;4152421;28;20042;-68
2022/01/23 03:59:43;;;;;;;25.52;17.45;;;5.30;99.90;;;4.64;100.00;102989.78;4169431;28;20117;-68
2022/01/23 04:01:44;;;;;;;25.48;16.73;;;5.30;99.90;;;4.50;100.00;102996.50;4169739;28;20021;-68
2022/01/23 04:03:45;;;;;;;24.58;15.07;;;5.30;99.90;;;4.50;100.00;102988.66;4169756;28;20017;-68
2022/01/23 04:05:47;;;;;;;25.77;16.75;;;5.30;99.90;;;4.38;100.00;102988.25;4169439;28;20366;-67
2022/01/23 04:07:48;;;;;;;24.77;15.90;;;5.30;99.90;;;4.45;100.00;102984.44;4152061;28;20060;-68
2022/01/23 04:09:50;;;;;;;25.15;15.65;;;5.20;99.90;;;4.24;100.00;102992.31;4184828;28;20056;-68
2022/01/23 04:11:52;;;;;;;22.70;14.98;;;5.20;99.90;;;4.22;100.00;102992.38;4151944;28;20029;-68
2022/01/23 04:14:05;;;;;;;24.58;15.90;;;5.20;99.90;;;4.23;100.00;102988.00;4184588;28;20115;-67
2022/01/23 04:19:10;;;;;;;27.45;16.50;;;5.10;99.90;;;4.09;100.00;102979.84;4150882;28;20045;-68
2022/01/23 04:35:11;;;;;;;26.67;16.20;;;4.90;99.90;;;3.91;100.00;102965.75;4169275;28;20026;-68
2022/01/23 04:46:57;;;;;;;26.58;17.20;;;4.80;99.90;;;3.89;100.00;102967.56;4181873;28;20562;-68
2022/01/23 04:59:32;;;;;;;28.52;18.05;;;4.80;99.90;;;4.01;100.00;102971.44;4168746;28;20045;-68
2022/01/23 05:00:12;;;;;;;26.45;17.92;;;4.80;99.90;;;4.08;100.00;102971.16;4168798;28;20107;-68
2022/01/23 05:04:35;;;;;;;26.63;17.15;;;4.90;99.90;;;3.73;100.00;102956.00;4181869;28;20051;-68
2022/01/23 05:06:43;;;;;;;31.48;17.55;;;4.80;99.90;;;3.82;100.00;102961.72;4168498;28;20025;-68
2022/01/23 05:08:44;;;;;;;29.00;17.95;;;4.80;99.90;;;3.78;100.00;102960.16;4183082;28;20056;-68
2022/01/23 05:10:46;;;;;;;27.90;17.27;;;4.70;99.90;;;3.60;100.00;102949.53;4168648;28;20040;-68
2022/01/23 05:12:47;;;;;;;29.17;17.08;;;4.70;99.90;;;3.60;100.00;102949.53;4183492;28;20025;-68
2022/01/23 05:14:49;;;;;;;31.75;17.67;;;4.60;99.90;;;3.53;100.00;102941.09;4183770;28;20057;-68
2022/01/23 05:16:50;;;;;;;28.70;18.38;;;4.60;99.90;;;3.66;100.00;102938.88;4162062;28;20077;-68
2022/01/23 05:18:51;;;;;;;30.75;17.90;;;4.60;99.90;;;3.75;100.00;102948.97;4168336;28;20045;-68
2022/01/23 05:21:03;;;;;;;30.73;17.10;;;4.60;99.90;;;3.68;100.00;102948.34;4183228;28;20036;-68
2022/01/23 05:23:05;;;;;;;33.38;17.13;;;4.60;99.90;;;3.73;100.00;102946.41;4152342;28;20034;-68
2022/01/23 05:25:14;;;;;;;28.92;18.00;;;4.60;99.90;;;3.73;100.00;102945.56;4168472;28;20375;-68
2022/01/23 05:27:15;;;;;;;37.60;19.15;;;4.60;99.90;;;3.71;100.00;102948.22;4168029;28;20108;-68
2022/01/23 05:29:16;;;;;;;28.42;17.73;;;4.70;99.90;;;3.81;100.00;102948.72;4168307;28;20057;-68
2022/01/23 05:31:17;;;;;;;32.83;17.58;;;4.60;99.90;;;3.73;100.00;102940.34;4183567;28;20033;-68
2022/01/23 05:33:18;;;;;;;33.08;17.92;;;4.60;99.90;;;3.71;100.00;102936.94;4183740;28;20035;-68
2022/01/23 05:35:22;;;;;;;34.47;18.90;;;4.70;99.90;;;3.75;100.00;102935.91;4150589;28;20100;-68
2022/01/23 05:37:22;;;;;;;37.80;18.98;;;4.60;99.90;;;3.83;100.00;102941.69;4168146;28;20029;-68
2022/01/23 05:39:26;;;;;;;30.25;17.52;;;4.70;99.90;;;3.76;100.00;102935.84;4168093;28;20127;-68
2022/01/23 05:41:27;;;;;;;31.45;17.75;;;4.70;99.90;;;3.74;100.00;102939.41;4183241;28;20021;-68
2022/01/23 05:43:28;;;;;;;28.70;18.48;;;4.70;99.90;;;3.79;100.00;102940.13;4183088;28;20025;-67
2022/01/23 05:45:29;;;;;;;28.65;17.88;;;4.70;99.90;;;3.90;100.00;102941.41;4167976;28;20030;-67
2022/01/23 05:47:30;;;;;;;30.67;17.92;;;4.70;99.90;;;3.82;100.00;102940.00;4168033;28;20103;-68
2022/01/23 05:49:31;;;;;;;31.33;17.50;;;4.70;99.90;;;3.83;100.00;102941.69;4168055;28;20061;-67
2022/01/23 05:51:32;;;;;;;32.92;17.92;;;4.70;99.90;;;3.89;100.00;102937.09;4183288;28;20109;-68
2022/01/23 05:53:33;;;;;;;25.48;16.17;;;4.70;99.90;;;3.97;100.00;102941.16;4167920;28;20038;-68
2022/01/23 05:55:34;;;;;;;29.35;17.63;;;4.80;99.90;;;4.05;100.00;102934.72;4167694;28;20514;-68
2022/01/23 05:57:35;;;;;;;30.73;18.20;;;4.80;99.90;;;4.06;100.00;102931.19;4183069;28;20064;-67
2022/01/23 05:59:36;;;;;;;27.08;17.38;;;4.80;99.90;;;4.02;100.00;102934.84;4167536;28;20026;-68
2022/01/23 06:01:36;;;;;;;31.75;17.38;;;4.80;99.90;;;4.00;100.00;102934.06;4166587;28;20075;-68
2022/01/23 06:03:37;;;;;;;27.10;17.65;;;4.80;99.90;;;4.00;100.00;102944.50;4167680;28;20025;-68
2022/01/23 06:05:38;;;;;;;27.83;16.67;;;4.80;99.90;;;4.05;100.00;102937.34;4150065;28;20488;-68
2022/01/23 06:07:41;;;;;;;30.52;17.73;;;4.80;99.90;;;3.97;100.00;102936.78;4150208;28;20033;-68
2022/01/23 06:09:42;;;;;;;27.98;17.48;;;4.80;99.90;;;3.87;100.00;102933.69;4150449;28;20057;-68
2022/01/23 06:11:43;;;;;;;29.08;17.70;;;4.80;99.90;;;3.93;100.00;102929.97;4182893;28;20044;-68
2022/01/23 06:13:44;;;;;;;29.88;18.95;;;4.80;99.90;;;4.08;100.00;102932.00;4149834;28;20577;-68
2022/01/23 06:15:44;;;;;;;29.58;17.42;;;4.80;99.90;;;4.25;100.00;102944.38;4149934;28;20065;-68
2022/01/23 06:17:46;;;;;;;28.10;17.80;;;4.80;99.90;;;4.02;100.00;102950.50;4182677;28;20071;-68
2022/01/23 06:19:47;;;;;;;33.50;19.42;;;4.80;99.90;;;3.89;100.00;102939.69;4151283;28;20037;-68
2022/01/23 06:21:47;;;;;;;29.33;17.30;;;4.80;99.90;;;4.02;100.00;102953.13;4166206;28;20112;-68
2022/01/23 06:23:56;;;;;;;27.17;17.27;;;4.80;99.90;;;4.00;100.00;102936.69;4167433;28;20465;-67
2022/01/23 06:25:57;;;;;;;33.08;19.90;;;4.80;99.90;;;3.95;100.00;102938.59;4149752;28;20022;-68
2022/01/23 06:27:59;;;;;;;31.95;19.70;;;4.80;99.90;;;4.06;100.00;102944.25;4181340;28;20136;-68
2022/01/23 06:30:00;;;;;;;30.60;18.40;;;4.80;99.90;;;4.02;100.00;102947.91;4149961;28;20191;-68
2022/01/23 06:32:02;;;;;;;31.23;18.63;;;4.80;99.90;;;4.09;100.00;102943.28;4157757;28;20025;-68
2022/01/23 06:34:05;;;;;;;30.45;18.38;;;4.90;99.90;;;4.09;100.00;102949.34;4153565;28;20033;-68
2022/01/23 06:36:06;;;;;;;29.27;17.48;;;4.90;99.90;;;4.03;100.00;102949.63;4167190;28;20091;-68
2022/01/23 06:38:07;;;;;;;33.38;18.88;;;4.90;99.90;;;4.06;100.00;102957.28;4149776;28;20041;-68
2022/01/23 06:40:09;;;;;;;29.67;18.70;;;4.90;99.90;;;3.98;100.00;102951.53;4167457;28;20056;-68
2022/01/23 06:42:10;;;;;;;33.55;18.98;;;4.90;99.90;;;3.87;100.00;102943.28;4182592;28;20087;-68
2022/01/23 06:44:11;;;;;;;28.88;18.98;;;4.90;99.90;;;3.95;100.00;102956.88;4151907;28;20120;-68
2022/01/23 06:46:12;;;;;;;35.15;19.20;;;4.80;99.90;;;4.06;100.00;102954.69;4167418;28;20029;-68
2022/01/23 06:48:13;;;;;;;33.33;19.38;;;4.90;99.90;;;3.92;100.00;102957.00;4167166;28;20032;-68
2022/01/23 06:50:14;;;;;;;31.05;19.13;;;4.80;99.90;;;3.97;100.00;102949.84;4167199;28;20030;-68
2022/01/23 06:52:15;;;;;;;30.88;18.83;;;4.80;99.90;;;4.00;100.00;102957.56;4182521;28;20025;-68
2022/01/23 06:54:16;;;;;;;33.42;20.15;;;4.80;99.90;;;4.08;100.00;102963.34;4149705;28;20034;-68
2022/01/23 06:56:17;;;;;;;32.92;18.50;;;4.80;99.90;;;4.24;100.00;102956.56;4167169;28;20021;-68
2022/01/23 06:58:18;;;;;;;33.72;18.40;;;4.90;99.90;;;4.14;100.00;102951.78;4182142;28;20033;-67
2022/01/23 07:00:19;;;;;;;31.00;18.63;;;5.00;99.90;;;4.18;100.00;102953.38;4166877;28;20025;-68
2022/01/23 07:02:20;;;;;;;30.15;19.80;;;4.90;99.90;;;4.13;100.00;102958.75;4182550;28;20413;-67
2022/01/23 07:04:21;;;;;;;37.28;20.23;;;4.90;99.90;;;4.07;100.00;102956.41;4167098;28;20048;-68
2022/01/23 07:06:22;;;;;;;33.53;19.35;;;4.90;99.90;;;4.17;100.00;102956.88;4167021;28;20073;-68
2022/01/23 07:08:23;;;;;;;27.17;17.50;;;4.90;99.90;;;4.01;100.00;102954.03;4149383;28;20524;-68
2022/01/23 07:10:25;;;;;;;27.10;17.55;;;4.90;99.90;;;4.08;100.00;102960.72;4167199;28;20087;-68
2022/01/23 07:12:25;;;;;;;31.52;18.23;;;4.90;99.90;;;3.97;100.00;102955.06;4167171;28;20049;-68
2022/01/23 07:14:26;;;;;;;32.30;17.98;;;4.90;99.90;;;3.97;100.00;102968.13;4182032;28;20033;-68
2022/01/23 07:16:27;;;;;;;34.58;19.55;;;4.90;99.90;;;4.05;100.00;102962.59;4149180;28;20033;-68
2022/01/23 07:18:29;;;;;;;32.67;19.20;;;4.90;99.90;;;4.08;100.00;102972.91;4165516;28;20029;-68
2022/01/23 07:20:30;;;;;;;29.98;18.83;;;4.90;99.90;;;4.05;100.00;102967.81;4165769;28;20536;-68
2022/01/23 07:22:30;;;;;;;32.25;18.95;;;4.80;99.90;;;4.01;100.00;102966.22;4166651;28;20053;-68
2022/01/23 07:24:31;;;;;;;30.65;17.85;;;4.80;99.90;;;3.93;100.00;102958.69;4166426;28;20026;-68
2022/01/23 07:26:34;;;;;;;35.15;17.75;;;4.80;99.90;;;3.88;100.00;102956.25;4181916;28;20158;-68
2022/01/23 07:28:39;;;;;;;34.00;17.80;;;4.80;99.90;;;3.99;100.00;102963.69;4166424;28;20480;-68
2022/01/23 07:32:44;;;;;;;;;;;4.80;99.90;;;3.97;100.00;102949.84;4182344;28;20059;-68
2022/01/23 07:34:45;;;;;;;29.02;15.50;;;4.80;99.90;;;3.99;100.00;102955.84;4149245;28;19909;-68
2022/01/23 07:36:46;;;;;;;36.80;17.50;;;4.80;99.90;;;4.05;100.00;102950.41;4166692;28;20040;-68
2022/01/23 07:38:47;;;;;;;36.55;18.50;;;4.80;99.90;;;3.99;100.00;102953.25;4166879;28;20539;-68
2022/01/23 07:40:48;;;;;;;28.58;16.42;;;4.80;99.90;;;3.81;100.00;102953.94;4182127;28;20025;-68
2022/01/23 07:42:49;;;;;;;27.05;17.42;;;4.80;99.90;;;3.79;100.00;102950.56;4166593;28;20022;-68
2022/01/23 07:44:50;;;;;;;29.77;17.83;;;4.80;99.90;;;3.76;100.00;102956.72;4168277;28;20033;-68
2022/01/23 07:46:51;;;;;;;28.98;18.15;;;4.70;99.90;;;3.85;100.00;102956.38;4169786;28;20021;-68
2022/01/23 07:48:52;;;;;;;27.25;16.17;;;4.70;99.90;;;3.95;100.00;102956.88;4185100;28;20033;-68
2022/01/23 07:50:53;;;;;;;31.05;18.17;;;4.70;99.90;;;3.89;100.00;102965.78;4169992;28;20037;-68
2022/01/23 07:52:54;;;;;;;29.85;18.45;;;4.70;99.90;;;3.82;100.00;102972.16;4185184;28;20058;-68
2022/01/23 07:54:55;;;;;;;33.13;18.27;;;4.70;99.90;;;3.79;100.00;102982.72;4151971;28;20425;-68
2022/01/23 07:56:56;;;;;;;30.35;17.02;;;4.70;99.90;;;3.83;100.00;102981.69;4169372;28;20032;-69
2022/01/23 07:58:58;;;;;;;30.75;16.30;;;4.70;99.90;;;3.83;100.00;102979.09;4169372;28;20488;-69
2022/01/23 08:00:59;;;;;;;29.92;17.23;;;4.70;99.90;;;3.78;100.00;102975.81;4169713;28;20035;-69
2022/01/23 08:03:00;;;;;;;25.77;16.73;;;4.70;99.90;;;3.73;100.00;102977.72;4169699;28;20029;-69
2022/01/23 08:05:03;;;;;;;38.03;19.35;;;4.70;99.90;;;3.62;100.00;102992.06;4169433;28;20060;-69
2022/01/23 08:07:10;;;;;;;39.50;18.10;;;4.60;99.90;;;3.77;100.00;102976.72;4184684;28;20025;-70
2022/01/23 08:09:12;;;;;;;35.92;18.23;;;4.70;99.90;;;3.62;100.00;102976.41;4169120;28;20091;-69
2022/01/23 08:11:13;;;;;;;31.65;17.02;;;4.60;99.90;;;3.69;100.00;102980.50;4169553;28;20025;-68
2022/01/23 08:13:14;;;;;;;35.40;18.65;;;4.60;99.90;;;3.76;100.00;102988.03;4169254;28;20041;-69
2022/01/23 08:15:15;;;;;;;31.63;18.48;;;4.60;99.90;;;3.73;100.00;102987.34;4184568;28;20126;-70
2022/01/23 08:17:16;;;;;;;37.55;19.55;;;4.60;99.90;;;3.65;100.00;102976.31;4161031;28;20461;-71
2022/01/23 08:19:17;;;;;;;38.60;18.67;;;4.60;99.90;;;3.76;100.00;102982.00;4169151;28;20033;-71
2022/01/23 08:21:17;;;;;;;39.30;19.70;;;4.60;99.90;;;3.75;100.00;102985.50;4184574;28;20090;-71
2022/01/23 08:23:20;;;;;;;39.92;20.30;;;4.60;99.90;;;3.63;100.00;102989.44;4169263;28;20022;-68
2022/01/23 08:25:21;;;;;;;39.45;20.05;;;4.60;99.90;;;3.47;100.00;102982.19;4167857;28;20025;-67
2022/01/23 08:27:24;;;;;;;34.53;20.30;;;4.50;99.90;;;3.62;100.00;102986.84;4168998;28;20037;-68
2022/01/23 08:29:25;;;;;;;36.47;21.38;;;4.50;99.90;;;3.65;100.00;102989.34;4168752;28;20437;-68
2022/01/23 08:31:26;;;;;;;39.97;20.95;;;4.50;99.90;;;3.46;100.00;102988.34;4169019;28;20048;-68
2022/01/23 08:33:27;;;;;;;37.40;20.58;;;4.50;99.90;;;3.55;100.00;102988.00;4168963;28;20031;-68
2022/01/23 08:35:29;;;;;;;41.20;20.15;;;4.50;99.90;;;3.65;100.00;102989.34;4168828;28;20160;-68
2022/01/23 08:37:30;;;;;;;37.22;19.38;;;4.50;99.90;;;3.75;100.00;102988.13;4168991;28;20038;-68
2022/01/23 08:39:35;;;;;;;39.22;20.52;;;4.60;99.90;;;3.83;100.00;102979.09;4168889;28;20037;-68
2022/01/23 08:41:51;;;;;;;;;;;4.60;99.90;;;3.62;100.00;102997.28;4169491;28;20022;-68
2022/01/23 08:43:52;;;;;;;43.42;19.77;;;4.60;99.90;;;3.62;100.00;102979.03;4168610;28;19916;-68
2022/01/23 08:45:53;;;;;;;43.83;20.67;;;4.60;99.90;;;3.69;100.00;102972.69;4168887;28;20033;-68
2022/01/23 08:47:53;;;;;;;41.47;20.30;;;4.60;99.90;;;3.87;100.00;102977.22;4184254;28;20028;-68
2022/01/23 08:49:54;;;;;;;38.15;21.30;;;4.70;99.90;;;3.95;100.00;102977.75;4184141;28;20036;-68
2022/01/23 08:51:58;;;;;;;36.25;19.92;;;4.70;99.90;;;3.86;100.00;102978.13;4168852;28;20392;-68
2022/01/23 08:53:59;;;;;;;42.53;22.20;;;4.70;99.90;;;3.82;100.00;102981.78;4151155;28;20504;-68
2022/01/23 08:56:00;;;;;;;51.30;23.10;;;4.70;99.90;;;3.75;100.00;102982.91;4167561;28;20021;-68
2022/01/23 08:58:01;;;;;;;44.35;22.73;;;4.70;99.90;;;3.69;100.00;102965.72;4183754;28;20112;-68
2022/01/23 09:00:05;;;;;;;41.08;21.67;;;4.70;99.90;;;3.80;100.00;102973.97;4150982;28;20022;-68
2022/01/23 09:02:06;;;;;;;39.70;21.13;;;4.70;99.90;;;3.76;100.00;102969.78;4151005;28;20030;-68
2022/01/23 09:04:08;;;;;;;43.60;23.75;;;4.70;99.90;;;3.87;100.00;102969.38;4168559;28;20501;-68
2022/01/23 09:06:09;;;;;;;44.53;23.35;;;4.70;99.90;;;3.77;100.00;102957.56;4168660;28;20108;-67
2022/01/23 09:08:10;;;;;;;45.55;23.77;;;4.70;99.90;;;3.82;100.00;102953.88;4168510;28;20025;-68
2022/01/23 09:10:11;;;;;;;46.88;23.73;;;4.80;99.90;;;3.84;100.00;102962.53;4168484;28;20041;-68
2022/01/23 09:14:17;;;;;;;33.03;17.38;;;4.80;99.90;;;3.92;100.00;102959.59;4150948;28;20041;-68
2022/01/23 09:16:18;;;;;;;47.92;23.65;;;4.80;99.90;;;4.01;100.00;102956.63;4168152;28;20026;-68
2022/01/23 09:18:19;;;;;;;43.08;24.10;;;4.80;99.90;;;3.91;100.00;102955.31;4168215;28;20037;-68
2022/01/23 09:20:20;;;;;;;58.00;25.27;;;4.80;99.90;;;3.92;100.00;102954.38;4168161;28;20065;-68
2022/01/23 09:22:21;;;;;;;51.05;23.42;;;4.80;99.90;;;4.05;100.00;102955.63;4168187;28;20026;-68
2022/01/23 09:24:25;;;;;;;47.47;23.17;;;4.90;99.90;;;4.01;100.00;102956.63;4183374;28;20029;-68
2022/01/23 09:26:26;;;;;;;47.00;23.23;;;4.90;99.90;;;3.70;100.00;102953.50;4183266;28;20017;-68
2022/01/23 09:28:32;;;;;;;47.88;22.92;;;4.80;99.90;;;3.62;100.00;102951.19;4183082;28;20044;-68
2022/01/23 09:30:36;;;;;;;48.72;24.08;;;4.80;99.90;;;3.63;100.00;102958.13;4151154;28;20081;-68
2022/01/23 09:32:37;;;;;;;;;;;4.70;99.90;;;3.63;100.00;102952.03;4168305;28;20025;-68
2022/01/23 09:34:41;;;;;;;47.47;21.92;;;4.70;99.90;;;3.50;100.00;102953.38;4167797;28;19983;-68
2022/01/23 09:36:42;;;;;;;39.75;20.63;;;4.70;99.90;;;3.38;100.00;102953.84;4182873;28;20036;-68
2022/01/23 09:38:43;;;;;;;50.33;24.58;;;4.60;99.90;;;3.41;100.00;102945.91;4167884;28;20720;-68
2022/01/23 09:40:45;;;;;;;49.80;21.70;;;4.60;99.90;;;3.57;100.00;102947.91;4167829;28;20025;-68
2022/01/23 09:43:00;;;;;;;45.25;22.90;;;4.60;99.90;;;3.65;100.00;102948.44;4150024;28;20100;-68
2022/01/23 09:45:07;;;;;;;47.80;21.52;;;4.70;99.90;;;3.61;100.00;102951.25;4182590;28;20079;-68
2022/01/23 09:47:16;;;;;;;47.15;23.65;;;4.70;99.90;;;3.62;100.00;102942.50;4182652;28;20108;-68
2022/01/23 09:49:18;;;;;;;47.60;22.95;;;4.60;99.90;;;3.55;100.00;102941.91;4167731;28;20060;-68
2022/01/23 09:51:24;;;;;;;49.00;22.85;;;4.70;99.90;;;3.71;100.00;102931.72;4183079;28;20067;-68
2022/01/23 09:53:25;;;;;;;47.08;21.65;;;4.70;99.90;;;3.90;100.00;102935.31;4182875;28;20029;-68
2022/01/23 09:55:28;;;;;;;45.75;22.88;;;4.80;99.90;;;3.97;100.00;102935.94;4166114;28;20060;-68
2022/01/23 09:57:31;;;;;;;43.80;20.75;;;4.80;99.90;;;3.93;100.00;102940.44;4167487;28;20025;-68
2022/01/23 09:59:32;;;;;;;38.38;20.77;;;4.90;99.90;;;4.01;100.00;102940.13;4167537;28;20097;-68
2022/01/23 10:01:34;;;;;;;43.15;21.67;;;4.90;99.90;;;4.10;100.00;102944.97;4183097;28;20415;-68
2022/01/23 10:03:35;;;;;;;42.03;21.13;;;5.00;99.90;;;3.96;100.00;102937.69;4182678;28;20033;-68
2022/01/23 10:05:37;;;;;;;42.47;21.25;;;5.00;99.90;;;4.03;100.00;102939.16;4181591;28;20131;-68
2022/01/23 10:07:40;;;;;;;44.50;20.95;;;5.00;99.90;;;4.20;100.00;102943.72;4182757;28;20028;-68
2022/01/23 10:09:42;;;;;;;41.47;20.98;;;5.00;99.90;;;4.21;100.00;102933.19;4182661;28;20426;-68
2022/01/23 10:11:44;;;;;;;37.28;20.75;;;5.10;99.90;;;4.43;100.00;102948.84;4182785;28;20062;-68
2022/01/23 10:13:44;;;;;;;41.20;18.38;;;5.20;99.90;;;4.44;100.00;102940.97;4182570;28;20100;-68
2022/01/23 10:15:45;;;;;;;36.53;18.90;;;5.30;99.90;;;4.32;100.00;102941.47;4167344;28;20381;-68
2022/01/23 10:17:47;;;;;;;37.15;18.80;;;5.30;99.90;;;4.23;100.00;102939.22;4182634;28;20048;-68
2022/01/23 10:19:48;;;;;;;38.65;17.63;;;5.20;99.90;;;4.22;100.00;102934.03;4149733;28;20034;-68
2022/01/23 10:21:49;;;;;;;34.45;17.55;;;5.20;99.90;;;4.32;100.00;102931.00;4167202;28;20036;-68
2022/01/23 10:23:52;;;;;;;34.05;18.30;;;5.20;99.90;;;4.08;100.00;102928.53;4149866;28;20069;-68
2022/01/23 10:25:54;;;;;;;34.38;18.67;;;5.20;99.90;;;4.00;100.00;102933.22;4149568;28;20026;-68
2022/01/23 10:27:59;;;;;;;37.00;19.17;;;5.20;99.90;;;4.04;100.00;102930.41;4165627;28;20116;-68
2022/01/23 10:30:00;;;;;;;36.38;18.80;;;5.10;99.90;;;4.15;100.00;102920.38;4167175;28;20029;-68
2022/01/23 10:32:14;;;;;;;40.58;20.13;;;5.20;99.90;;;4.12;100.00;102928.31;4182548;28;20083;-68
2022/01/23 10:34:14;;;;;;;38.30;19.42;;;5.20;99.90;;;4.34;100.00;102930.94;4149535;28;20168;-68
2022/01/23 10:36:17;;;;;;;35.85;16.98;;;5.30;99.90;;;4.24;100.00;102922.63;4166965;28;20086;-69
2022/01/23 10:38:21;;;;;;;35.92;19.35;;;5.30;99.90;;;4.14;100.00;102923.06;4165884;28;20025;-68
2022/01/23 10:40:22;;;;;;;39.72;18.77;;;5.30;99.90;;;4.20;100.00;102934.13;4133315;28;20034;-68
2022/01/23 10:49:21;;;;;;;32.72;18.13;;;5.50;99.90;;;4.37;100.00;102915.13;4155955;28;20065;-68
2022/01/23 10:51:31;;;;;;;41.08;19.00;;;5.50;99.90;;;4.43;100.00;102913.13;4166939;28;20025;-68
2022/01/23 10:53:32;;;;;;;40.92;19.38;;;5.50;99.90;;;4.40;100.00;102909.78;4182278;28;20037;-68